Time;durP1;ratioP1;P1;durP2;ratioP2;P2;SDS_P1;SDS_P2;PMS_P1;PMS_P2;Temp;Humidity;BMP_temperature;BMP_pressure;BME280_temperature;BME280_humidity;BME280_pressure;Samples;Min_cycle;Max_cycle;Signal;HPM_P1;HPM_P2
2022/08/23 00:00:11;;;;;;;;;;;;;;;17.14;60.27;98085.06;6212716;28;19925;-63
2022/08/23 00:03:17;;;;;;;;;;;;;;;17.13;60.36;98082.53;6219362;28;19925;-64
2022/08/23 00:06:18;;;;;;;;;;;;;;;17.09;60.33;98091.69;6212659;28;19929;-64
2022/08/23 00:09:21;;;;;;;;;;;;;;;17.02;61.44;98092.13;6218937;28;20382;-63
2022/08/23 00:12:22;;;;;;;;;;;;;;;17.00;60.68;98088.72;6218038;28;20027;-64
2022/08/23 00:15:23;;;;;;;;;;;;;;;16.98;60.66;98092.44;6219537;28;19926;-64
2022/08/23 00:18:28;;;;;;;;;;;;;;;16.94;60.50;98094.50;6216453;28;19926;-64
2022/08/23 00:21:29;;;;;;;;;;;;;;;16.92;60.51;98091.06;6216843;28;20283;-65
2022/08/23 00:24:31;;;;;;;;;;;;;;;16.93;60.38;98092.78;6216044;28;20016;-65
2022/08/23 00:27:32;;;;;;;;;;;;;;;16.87;60.93;98098.56;6219411;28;19922;-65
2022/08/23 00:30:34;;;;;;;;;;;;;;;16.87;61.00;98092.38;6214889;28;19925;-64
2022/08/23 00:33:39;;;;;;;;;;;;;;;16.93;60.61;98094.59;6217306;28;19991;-64
2022/08/23 00:36:40;;;;;;;;;;;;;;;16.91;61.08;98092.03;6218232;28;20417;-65
2022/08/23 00:39:43;;;;;;;;;;;;;;;16.94;60.65;98099.81;6213193;28;19925;-64
2022/08/23 00:50:21;;;;;;;;;;;;;;;16.81;60.65;98109.59;6100289;28;19926;-65
2022/08/23 00:53:25;;;;;;;;;;;;;;;16.79;61.03;98116.84;6223063;28;19925;-63
2022/08/23 00:56:29;;;;;;;;;;;;;;;16.76;61.14;98106.41;6221490;28;19965;-64
2022/08/23 00:59:31;;;;;;;;;;;;;;;16.80;60.68;98113.22;6223184;28;19969;-64
2022/08/23 01:02:35;;;;;;;;;;;;;;;16.81;61.09;98120.22;6221619;28;19926;-64
2022/08/23 01:05:44;;;;;;;;;;;;;;;16.82;61.00;98125.44;6222312;28;19932;-65
2022/08/23 01:08:48;;;;;;;;;;;;;;;16.82;61.14;98124.59;6222801;28;20318;-65
2022/08/23 01:11:49;;;;;;;;;;;;;;;16.84;60.74;98130.66;6218696;28;19933;-64
2022/08/23 01:14:56;;;;;;;;;;;;;;;16.86;60.91;98128.72;6216439;28;20032;-64
2022/08/23 01:18:03;;;;;;;;;;;;;;;16.86;60.89;98126.06;6218839;28;19925;-65
2022/08/23 01:21:04;;;;;;;;;;;;;;;16.90;60.46;98135.56;6217798;28;19932;-65
2022/08/23 01:24:06;;;;;;;;;;;;;;;16.92;60.66;98144.25;6222972;28;19925;-65
2022/08/23 01:27:11;;;;;;;;;;;;;;;16.93;60.44;98139.78;6222693;28;20023;-64
2022/08/23 01:30:17;;;;;;;;;;;;;;;16.91;61.15;98141.72;6214466;28;19951;-64
2022/08/23 01:33:20;;;;;;;;;;;;;;;16.92;60.80;98144.25;6220903;28;20514;-64
2022/08/23 01:36:22;;;;;;;;;;;;;;;17.01;60.46;98154.25;6219835;28;19925;-65
2022/08/23 01:39:23;;;;;;;;;;;;;;;17.02;60.90;98155.94;6220771;28;19925;-65
2022/08/23 01:42:27;;;;;;;;;;;;;;;17.06;60.09;98160.06;6219975;28;19934;-65
2022/08/23 01:45:29;;;;;;;;;;;;;;;17.10;60.28;98162.53;6218259;28;19932;-64
2022/08/23 01:48:32;;;;;;;;;;;;;;;17.14;60.42;98164.03;6218380;28;19925;-65
2022/08/23 01:51:36;;;;;;;;;;;;;;;17.17;60.16;98163.81;6218589;28;19964;-64
2022/08/23 01:54:39;;;;;;;;;;;;;;;17.23;60.32;98163.34;6216442;28;20515;-64
2022/08/23 01:57:43;;;;;;;;;;;;;;;17.32;60.18;98165.34;6217563;28;20059;-64
2022/08/23 02:00:44;;;;;;;;;;;;;;;17.32;60.03;98165.34;6219454;28;20310;-64
2022/08/23 02:03:48;;;;;;;;;;;;;;;17.36;60.00;98174.81;6217722;28;19925;-65
2022/08/23 02:06:49;;;;;;;;;;;;;;;17.41;59.95;98171.81;6219733;28;19925;-64
2022/08/23 02:09:50;;;;;;;;;;;;;;;17.48;59.80;98173.94;6221485;28;19926;-64
2022/08/23 02:12:53;;;;;;;;;;;;;;;17.56;59.48;98176.06;6218156;28;20036;-63
2022/08/23 02:16:44;;;;;;;;;;;;;;;17.66;59.60;98174.44;6218365;28;19933;-65
2022/08/23 02:19:46;;;;;;;;;;;;;;;17.73;59.24;98180.16;6197840;28;19933;-64
2022/08/23 02:22:47;;;;;;;;;;;;;;;17.81;59.50;98180.47;6206000;28;21296;-64
2022/08/23 02:25:50;;;;;;;;;;;;;;;17.90;59.58;98189.59;6220880;28;19931;-64
2022/08/23 02:28:53;;;;;;;;;;;;;;;17.92;59.64;98180.53;6220582;28;20019;-64
2022/08/23 02:31:57;;;;;;;;;;;;;;;18.00;59.45;98189.75;6218324;28;19933;-63
2022/08/23 02:34:58;;;;;;;;;;;;;;;18.09;59.20;98186.44;6220182;28;20072;-64
2022/08/23 02:38:03;;;;;;;;;;;;;;;18.18;59.25;98193.72;6217748;28;19937;-63
2022/08/23 02:41:04;;;;;;;;;;;;;;;18.25;58.82;98188.78;6219435;28;19926;-63
2022/08/23 02:44:09;;;;;;;;;;;;;;;18.33;58.53;98192.56;6218770;28;19955;-65
2022/08/23 02:47:11;;;;;;;;;;;;;;;18.42;58.66;98193.66;6218194;28;19925;-64
2022/08/23 02:50:14;;;;;;;;;;;;;;;18.51;58.88;98200.13;6218415;28;20003;-64
2022/08/23 02:53:16;;;;;;;;;;;;;;;18.58;58.73;98206.69;6220534;28;20038;-65
2022/08/23 02:56:20;;;;;;;;;;;;;;;18.64;58.39;98206.22;6217551;28;19925;-65
2022/08/23 02:59:21;;;;;;;;;;;;;;;18.75;58.27;98203.63;6220200;28;20028;-64
2022/08/23 03:02:24;;;;;;;;;;;;;;;18.82;58.30;98210.19;6217591;28;19925;-65
2022/08/23 03:05:30;;;;;;;;;;;;;;;18.94;58.06;98207.50;6219607;28;19964;-65
2022/08/23 03:08:31;;;;;;;;;;;;;;;19.03;57.68;98205.00;6218248;28;19921;-65
2022/08/23 03:11:33;;;;;;;;;;;;;;;19.14;57.77;98213.97;6206638;28;19932;-64
2022/08/23 03:14:34;;;;;;;;;;;;;;;19.28;57.44;98217.25;6217458;28;19925;-64
2022/08/23 03:17:35;;;;;;;;;;;;;;;19.45;57.35;98215.06;6218616;28;20314;-63
2022/08/23 03:20:36;;;;;;;;;;;;;;;19.50;57.07;98215.53;6218414;28;19925;-65
2022/08/23 03:23:43;;;;;;;;;;;;;;;19.61;56.91;98220.88;6210556;28;19925;-65
2022/08/23 03:26:45;;;;;;;;;;;;;;;19.65;56.76;98218.81;6216360;28;19925;-64
2022/08/23 03:29:46;;;;;;;;;;;;;;;19.73;56.90;98227.94;6213705;28;19932;-64
2022/08/23 03:32:47;;;;;;;;;;;;;;;19.84;56.48;98229.72;6215430;28;19929;-64
2022/08/23 03:35:51;;;;;;;;;;;;;;;19.91;56.54;98228.25;6218828;28;19932;-64
2022/08/23 03:38:53;;;;;;;;;;;;;;;20.01;56.21;98225.66;6215917;28;19925;-65
2022/08/23 03:41:54;;;;;;;;;;;;;;;20.13;56.10;98224.69;6215850;28;20469;-64
2022/08/23 03:45:00;;;;;;;;;;;;;;;20.26;55.62;98223.66;6214834;28;20224;-64
2022/08/23 03:48:01;;;;;;;;;;;;;;;20.37;55.74;98227.13;6218485;28;19921;-64
2022/08/23 03:51:05;;;;;;;;;;;;;;;20.50;55.46;98232.31;6217223;28;20044;-65
2022/08/23 03:54:06;;;;;;;;;;;;;;;20.64;55.32;98228.53;6217543;28;19921;-67
2022/08/23 03:57:08;;;;;;;;;;;;;;;20.78;54.96;98235.38;6217032;28;20383;-63
2022/08/23 04:00:13;;;;;;;;;;;;;;;20.92;54.63;98232.38;6214465;28;20011;-64
2022/08/23 04:03:14;;;;;;;;;;;;;;;21.04;54.75;98235.81;6216708;28;19932;-66
2022/08/23 04:06:18;;;;;;;;;;;;;;;21.21;54.09;98231.69;6216068;28;19925;-65
2022/08/23 04:09:19;;;;;;;;;;;;;;;21.30;54.14;98236.22;6218352;28;19932;-65
2022/08/23 04:12:21;;;;;;;;;;;;;;;21.46;53.72;98239.31;6217569;28;20024;-65
2022/08/23 04:15:22;;;;;;;;;;;;;;;21.63;53.76;98234.28;6217336;28;19932;-65
2022/08/23 04:18:23;;;;;;;;;;;;;;;21.74;53.29;98236.88;6215013;28;20302;-64
2022/08/23 04:21:27;;;;;;;;;;;;;;;21.86;53.28;98246.47;6216439;28;19925;-63
2022/08/23 04:24:31;;;;;;;;;;;;;;;21.96;53.06;98250.00;6219984;28;19925;-63
2022/08/23 04:27:34;;;;;;;;;;;;;;;22.08;52.82;98250.78;6220012;28;19932;-64
2022/08/23 04:30:38;;;;;;;;;;;;;;;22.22;52.76;98254.88;6225655;28;19925;-64
2022/08/23 04:33:39;;;;;;;;;;;;;;;22.40;52.23;98255.06;6225545;28;19931;-64
2022/08/23 04:36:45;;;;;;;;;;;;;;;22.59;52.10;98249.72;6215329;28;19933;-64
2022/08/23 04:43:09;;;;;;;;;;;;;;;22.96;51.24;98249.00;6222664;28;20015;-62
2022/08/23 04:46:12;;;;;;;;;;;;;;;23.14;51.09;98245.56;6247143;28;19932;-63
2022/08/23 04:49:15;;;;;;;;;;;;;;;23.28;50.76;98248.63;6225665;28;20390;-62
2022/08/23 04:52:19;;;;;;;;;;;;;;;23.43;50.60;98253.53;6225130;28;20333;-64
2022/08/23 04:55:20;;;;;;;;;;;;;;;23.55;50.18;98255.03;6200878;28;19925;-62
2022/08/23 04:58:24;;;;;;;;;;;;;;;23.70;49.82;98258.97;6201980;28;19926;-62
2022/08/23 05:01:25;;;;;;;;;;;;;;;23.85;49.56;98245.03;6224697;28;19929;-63
2022/08/23 05:04:26;;;;;;;;;;;;;;;24.06;49.17;98253.69;6224455;28;20425;-62
2022/08/23 05:07:32;;;;;;;;;;;;;;;24.33;48.52;98249.25;6224656;28;19930;-62
2022/08/23 05:10:33;;;;;;;;;;;;;;;24.67;48.17;98256.69;6216863;28;19934;-63
2022/08/23 05:13:35;;;;;;;;;;;;;;;25.28;46.93;98245.06;6224617;28;20020;-63
2022/08/23 05:16:38;;;;;;;;;;;;;;;27.91;42.90;98252.47;6224488;28;19926;-63
2022/08/23 05:19:39;;;;;;;;;;;;;;;32.00;36.41;98269.22;6224438;28;19999;-63
2022/08/23 05:22:40;;;;;;;;;;;;;;;35.62;32.07;98270.69;6223550;28;19930;-61
2022/08/23 05:25:50;;;;;;;;;;;;;;;38.39;28.32;98271.25;6221391;28;20341;-61
2022/08/23 05:28:52;;;;;;;;;;;;;;;40.72;25.17;98275.41;6219997;28;19944;-62
2022/08/23 05:31:57;;;;;;;;;;;;;;;42.42;23.98;98270.81;6224509;28;20360;-61
2022/08/23 05:35:03;;;;;;;;;;;;;;;44.59;22.86;98277.53;6223186;28;19925;-65
2022/08/23 05:38:07;;;;;;;;;;;;;;;46.27;20.91;98277.13;6223762;28;20424;-62
2022/08/23 05:41:08;;;;;;;;;;;;;;;47.62;19.07;98274.78;6221233;28;19929;-61
2022/08/23 05:44:09;;;;;;;;;;;;;;;49.02;19.07;98274.38;6217445;28;19967;-62
2022/08/23 05:47:14;;;;;;;;;;;;;;;49.84;17.90;98275.88;6220748;28;19921;-64
2022/08/23 05:50:15;;;;;;;;;;;;;;;50.32;16.95;98270.31;6224042;28;20023;-64
2022/08/23 05:53:16;;;;;;;;;;;;;;;50.59;15.58;98268.34;6224139;28;20060;-64
2022/08/23 05:56:20;;;;;;;;;;;;;;;50.68;15.60;98266.41;6223468;28;20394;-64
2022/08/23 05:59:24;;;;;;;;;;;;;;;51.25;14.32;98271.00;6227961;28;19925;-64
2022/08/23 06:02:25;;;;;;;;;;;;;;;51.71;13.84;98274.22;6207163;28;20370;-65
2022/08/23 06:05:31;;;;;;;;;;;;;;;51.72;12.36;98265.44;6218151;28;19929;-64
2022/08/23 06:08:37;;;;;;;;;;;;;;;51.80;12.28;98269.38;6222748;28;19925;-64
2022/08/23 06:11:39;;;;;;;;;;;;;;;52.04;12.56;98255.59;6227260;28;20318;-64
2022/08/23 06:14:41;;;;;;;;;;;;;;;53.05;12.10;98259.50;6217982;28;19926;-63
2022/08/23 06:17:42;;;;;;;;;;;;;;;54.03;11.55;98249.28;6225100;28;20006;-64
2022/08/23 06:20:43;;;;;;;;;;;;;;;53.75;10.64;98249.16;6223707;28;19926;-64
2022/08/23 06:23:47;;;;;;;;;;;;;;;53.65;10.38;98255.19;6231766;28;19929;-64
2022/08/23 06:26:51;;;;;;;;;;;;;;;53.95;10.45;98249.38;6230060;28;19930;-64
2022/08/23 06:29:55;;;;;;;;;;;;;;;53.98;10.49;98251.50;6222090;28;20024;-63
2022/08/23 06:32:58;;;;;;;;;;;;;;;53.96;9.95;98248.19;6209863;28;19964;-63
2022/08/23 06:36:03;;;;;;;;;;;;;;;53.58;10.11;98249.34;6215826;28;20068;-63
2022/08/23 06:39:07;;;;;;;;;;;;;;;52.51;10.14;98241.41;6230017;28;19929;-63
2022/08/23 06:42:12;;;;;;;;;;;;;;;52.33;10.58;98244.66;6222082;28;19936;-65
2022/08/23 06:45:16;;;;;;;;;;;;;;;52.29;10.17;98238.88;6218373;28;19930;-64
2022/08/23 06:48:20;;;;;;;;;;;;;;;52.41;11.20;98239.03;6218096;28;19930;-64
2022/08/23 06:51:26;;;;;;;;;;;;;;;50.20;11.72;98228.09;6216222;28;19933;-64
2022/08/23 06:54:30;;;;;;;;;;;;;;;51.25;11.42;98228.13;6218391;28;20425;-65
2022/08/23 06:57:33;;;;;;;;;;;;;;;53.09;10.10;98229.53;6221968;28;19926;-64
2022/08/23 07:00:37;;;;;;;;;;;;;;;54.23;9.63;98229.78;6222444;28;19932;-64
2022/08/23 07:03:40;;;;;;;;;;;;;;;56.06;8.48;98249.00;6221891;28;19925;-65
2022/08/23 07:06:44;;;;;;;;;;;;;;;57.35;8.13;98239.25;6220793;28;20402;-64
2022/08/23 07:09:46;;;;;;;;;;;;;;;58.79;6.30;98241.53;6209720;28;19925;-64
2022/08/23 07:12:49;;;;;;;;;;;;;;;59.44;7.24;98238.19;6197046;28;19965;-64
2022/08/23 07:15:55;;;;;;;;;;;;;;;59.56;6.90;98239.94;6199559;28;20401;-65
2022/08/23 07:18:57;;;;;;;;;;;;;;;59.85;6.49;98234.47;6210935;28;19921;-66
2022/08/23 07:21:59;;;;;;;;;;;;;;;60.03;6.12;98234.66;6220064;28;19964;-64
2022/08/23 07:25:02;;;;;;;;;;;;;;;59.57;6.63;98224.56;6221244;28;19932;-64
2022/08/23 07:28:07;;;;;;;;;;;;;;;59.70;6.59;98223.03;6220665;28;19925;-65
2022/08/23 07:31:15;;;;;;;;;;;;;;;60.42;6.06;98230.03;6221436;28;19925;-65
2022/08/23 07:34:17;;;;;;;;;;;;;;;59.52;6.19;98222.84;6221474;28;19979;-63
2022/08/23 07:37:23;;;;;;;;;;;;;;;58.26;6.24;98221.75;6221844;28;19926;-65
2022/08/23 07:40:26;;;;;;;;;;;;;;;53.62;8.19;98205.25;6221865;28;19925;-64
2022/08/23 07:43:32;;;;;;;;;;;;;;;49.87;10.26;98192.09;6216419;28;20326;-64
2022/08/23 07:46:33;;;;;;;;;;;;;;;46.98;11.97;98176.97;6244804;28;19928;-64
2022/08/23 07:49:37;;;;;;;;;;;;;;;44.32;13.20;98163.34;6246031;28;19928;-64
2022/08/23 07:52:39;;;;;;;;;;;;;;;44.85;13.27;98159.94;6244848;28;20391;-65
2022/08/23 07:55:43;;;;;;;;;;;;;;;49.26;10.48;98165.84;6245937;28;19924;-64
2022/08/23 07:58:47;;;;;;;;;;;;;;;53.01;8.55;98175.03;6245373;28;20278;-65
2022/08/23 08:01:50;;;;;;;;;;;;;;;55.28;7.04;98183.72;6205743;28;19930;-64
2022/08/23 08:04:53;;;;;;;;;;;;;;;55.86;6.31;98192.44;6196092;28;20314;-64
2022/08/23 08:08:01;;;;;;;;;;;;;;;54.28;7.23;98171.19;6196587;28;19926;-64
2022/08/23 08:11:02;;;;;;;;;;;;;;;50.64;10.15;98161.75;6216310;28;19929;-64
2022/08/23 08:14:05;;;;;;;;;;;;;;;46.65;11.91;98145.47;6220782;28;19991;-64
2022/08/23 08:17:06;;;;;;;;;;;;;;;47.43;11.30;98143.84;6219625;28;19925;-64
2022/08/23 08:20:12;;;;;;;;;;;;;;;50.67;9.46;98147.09;6221173;28;20307;-64
2022/08/23 08:23:14;;;;;;;;;;;;;;;52.81;8.39;98159.84;6221073;28;19926;-64
2022/08/23 08:26:19;;;;;;;;;;;;;;;53.26;7.93;98153.41;6220421;28;19930;-64
2022/08/23 08:29:23;;;;;;;;;;;;;;;51.29;8.96;98140.16;6220783;28;19983;-65
2022/08/23 08:32:26;;;;;;;;;;;;;;;51.56;8.86;98144.53;6220655;28;20051;-64
2022/08/23 08:35:30;;;;;;;;;;;;;;;54.16;7.46;98148.72;6219680;28;19925;-64
2022/08/23 08:38:32;;;;;;;;;;;;;;;53.34;7.70;98138.44;6220112;28;20079;-64
2022/08/23 08:41:47;;;;;;;;;;;;;;;50.86;9.27;98135.50;6220319;28;19929;-63
2022/08/23 08:44:48;;;;;;;;;;;;;;;50.70;9.20;98135.22;6232499;28;20588;-65
2022/08/23 08:47:57;;;;;;;;;;;;;;;49.85;9.59;98132.84;6245082;28;19925;-66
2022/08/23 08:51:02;;;;;;;;;;;;;;;49.68;9.22;98116.00;6233312;28;20426;-65
2022/08/23 08:54:07;;;;;;;;;;;;;;;48.40;10.46;98116.63;6195847;28;19933;-65
2022/08/23 08:57:11;;;;;;;;;;;;;;;45.94;11.63;98111.22;6195921;28;20413;-63
2022/08/23 09:00:16;;;;;;;;;;;;;;;44.14;12.83;98107.41;6195938;28;19925;-63
2022/08/23 09:03:19;;;;;;;;;;;;;;;43.01;13.72;98108.94;6195518;28;20423;-64
2022/08/23 09:06:25;;;;;;;;;;;;;;;45.43;11.89;98110.69;6196102;28;19925;-64
2022/08/23 09:09:34;;;;;;;;;;;;;;;48.17;10.45;98106.59;6197560;28;20304;-64
2022/08/23 09:12:41;;;;;;;;;;;;;;;47.13;10.96;98100.66;6218546;28;19930;-64
2022/08/23 09:15:51;;;;;;;;;;;;;;;48.40;10.38;98099.03;6224768;28;20310;-64
2022/08/23 09:18:55;;;;;;;;;;;;;;;50.74;9.02;98108.19;6223418;28;19929;-64
2022/08/23 09:22:19;;;;;;;;;;;;;;;52.73;8.15;98115.78;6224397;28;19949;-64
2022/08/23 09:25:23;;;;;;;;;;;;;;;54.21;7.39;98120.28;6217235;28;20016;-64
2022/08/23 09:28:24;;;;;;;;;;;;;;;55.11;7.35;98120.00;6199958;28;19925;-65
2022/08/23 09:31:38;;;;;;;;;;;;;;;55.60;6.96;98117.63;6199762;28;19926;-64
2022/08/23 09:34:42;;;;;;;;;;;;;;;55.91;6.55;98124.41;6199578;28;19929;-64
2022/08/23 09:37:47;;;;;;;;;;;;;;;56.22;5.69;98119.84;6199899;28;20387;-64
2022/08/23 09:40:49;;;;;;;;;;;;;;;56.15;6.33;98125.34;6199617;28;20355;-64
2022/08/23 09:43:51;;;;;;;;;;;;;;;55.94;5.73;98115.19;6209062;28;20027;-63
2022/08/23 09:47:04;;;;;;;;;;;;;;;54.32;6.67;98102.91;6248316;28;19925;-64
2022/08/23 09:50:14;;;;;;;;;;;;;;;50.60;8.67;98090.72;6247991;28;19921;-64
2022/08/23 09:53:23;;;;;;;;;;;;;;;48.72;9.31;98078.41;6247610;28;19929;-65
2022/08/23 09:56:27;;;;;;;;;;;;;;;49.95;8.50;98081.38;6248281;28;19995;-65
2022/08/23 09:59:43;;;;;;;;;;;;;;;50.87;7.99;98088.69;6224893;28;20022;-67
2022/08/23 10:02:46;;;;;;;;;;;;;;;51.12;7.60;98082.19;6198843;28;19930;-66
2022/08/23 10:05:55;;;;;;;;;;;;;;;51.38;7.51;98076.47;6198995;28;19926;-66
2022/08/23 10:09:03;;;;;;;;;;;;;;;51.45;7.43;98080.75;6198939;28;20288;-65
2022/08/23 10:12:06;;;;;;;;;;;;;;;51.34;7.07;98069.09;6212760;28;20024;-65
2022/08/23 10:15:09;;;;;;;;;;;;;;;49.49;8.17;98067.91;6223586;28;19925;-64
2022/08/23 10:18:14;;;;;;;;;;;;;;;47.07;9.13;98063.69;6222756;28;19925;-64
2022/08/23 10:21:50;;;;;;;;;;;;;;;44.53;10.74;98059.41;6223347;28;19925;-64
2022/08/23 10:24:52;;;;;;;;;;;;;;;45.76;9.80;98052.47;6196786;28;19925;-64
2022/08/23 10:31:27;;;;;;;;;;;;;;;48.49;8.31;98058.03;6222271;28;19925;-65
2022/08/23 10:34:50;;;;;;;;;;;;;;;49.47;7.88;98064.63;6222278;28;20380;-64
2022/08/23 10:38:09;;;;;;;;;;;;;;;49.78;7.49;98062.56;6222224;28;20363;-63
2022/08/23 10:41:22;;;;;;;;;;;;;;;50.36;7.13;98062.44;6222759;28;19926;-64
2022/08/23 10:44:27;;;;;;;;;;;;;;;49.83;7.18;98068.00;6231186;28;19925;-64
2022/08/23 10:47:40;;;;;;;;;;;;;;;48.68;7.72;98055.06;6247093;28;19925;-65
2022/08/23 10:50:43;;;;;;;;;;;;;;;47.90;8.17;98047.75;6225130;28;19932;-65
2022/08/23 10:53:48;;;;;;;;;;;;;;;47.74;8.55;98045.59;6197578;28;20399;-65
2022/08/23 10:56:52;;;;;;;;;;;;;;;47.74;8.50;98042.81;6198037;28;19925;-64
2022/08/23 10:59:54;;;;;;;;;;;;;;;46.78;8.91;98050.84;6197725;28;20000;-64
2022/08/23 11:03:08;;;;;;;;;;;;;;;45.81;9.63;98046.03;6215515;28;20305;-65
2022/08/23 11:06:44;;;;;;;;;;;;;;;46.05;9.40;98048.72;6222000;28;19936;-64
2022/08/23 11:09:52;;;;;;;;;;;;;;;46.54;9.05;98044.59;6148651;28;19926;-64
2022/08/23 11:12:53;;;;;;;;;;;;;;;46.84;9.06;98034.88;6217825;28;19925;-64
2022/08/23 11:15:59;;;;;;;;;;;;;;;46.67;8.78;98038.25;6221677;28;19932;-65
2022/08/23 11:19:00;;;;;;;;;;;;;;;46.11;9.35;98031.66;6220813;28;20008;-64
2022/08/23 11:22:18;;;;;;;;;;;;;;;46.12;9.25;98035.28;6221504;28;19981;-64
2022/08/23 11:25:24;;;;;;;;;;;;;;;45.55;9.63;98023.31;6205445;28;20139;-64
2022/08/23 11:28:36;;;;;;;;;;;;;;;45.43;9.66;98027.31;6197239;28;19926;-65
2022/08/23 11:32:00;;;;;;;;;;;;;;;45.17;9.88;98020.44;6196028;28;20307;-64
2022/08/23 11:35:03;;;;;;;;;;;;;;;45.12;10.11;98009.38;6186929;28;19933;-64
2022/08/23 11:38:07;;;;;;;;;;;;;;;44.55;10.17;98017.47;6196910;28;19926;-64
2022/08/23 11:41:15;;;;;;;;;;;;;;;43.75;10.47;98009.50;6197044;28;19972;-65
2022/08/23 11:44:20;;;;;;;;;;;;;;;42.01;11.58;98015.41;6212481;28;20007;-65
2022/08/23 11:47:40;;;;;;;;;;;;;;;40.39;12.85;98012.47;6245039;28;19987;-66
2022/08/23 11:50:50;;;;;;;;;;;;;;;38.45;14.24;98001.91;6246244;28;19925;-65
2022/08/23 11:53:53;;;;;;;;;;;;;;;37.62;15.22;98002.38;6245078;28;19925;-64
2022/08/23 11:57:13;;;;;;;;;;;;;;;37.90;14.39;98004.25;6244793;28;19925;-65
2022/08/23 12:00:22;;;;;;;;;;;;;;;38.57;14.21;98003.47;6199193;28;20020;-64
2022/08/23 12:03:34;;;;;;;;;;;;;;;39.31;13.45;97998.72;6217687;28;20328;-64
2022/08/23 12:06:38;;;;;;;;;;;;;;;39.74;13.48;98006.88;6220995;28;20470;-64
2022/08/23 12:09:40;;;;;;;;;;;;;;;39.39;13.48;97999.09;6220742;28;20359;-64
2022/08/23 12:12:41;;;;;;;;;;;;;;;39.00;14.12;98001.88;6220577;28;20016;-64
2022/08/23 12:16:01;;;;;;;;;;;;;;;38.92;14.44;98002.31;6231735;28;20426;-64
2022/08/23 12:19:05;;;;;;;;;;;;;;;38.77;14.69;97997.41;6220293;28;19932;-64
2022/08/23 12:22:10;;;;;;;;;;;;;;;38.21;14.77;98002.03;6220317;28;20306;-65
2022/08/23 12:25:17;;;;;;;;;;;;;;;37.81;15.23;98003.00;6220779;28;19925;-65
2022/08/23 12:28:30;;;;;;;;;;;;;;;37.56;15.68;97994.28;6220609;28;19926;-63
2022/08/23 12:31:51;;;;;;;;;;;;;;;37.67;15.57;97998.91;6219927;28;20044;-63
2022/08/23 12:34:58;;;;;;;;;;;;;;;38.17;14.66;97998.16;6220477;28;19932;-65
2022/08/23 12:38:09;;;;;;;;;;;;;;;38.28;14.38;97994.47;6220745;28;19926;-65
2022/08/23 12:41:17;;;;;;;;;;;;;;;37.87;15.19;97991.00;6218443;28;20348;-63
2022/08/23 12:44:20;;;;;;;;;;;;;;;37.75;15.15;97990.25;6218062;28;20391;-63
2022/08/23 12:47:22;;;;;;;;;;;;;;;37.76;15.20;97991.91;6224061;28;20270;-63
2022/08/23 12:50:30;;;;;;;;;;;;;;;37.75;15.17;97990.25;6221030;28;20318;-64
2022/08/23 12:53:33;;;;;;;;;;;;;;;37.86;14.92;97985.78;6222065;28;19925;-64
2022/08/23 12:56:36;;;;;;;;;;;;;;;37.51;15.48;97984.88;6237320;28;19932;-64
2022/08/23 12:59:48;;;;;;;;;;;;;;;36.84;15.66;97985.41;6221487;28;19976;-61
2022/08/23 13:03:09;;;;;;;;;;;;;;;36.60;15.50;97979.13;6224192;28;19929;-64
2022/08/23 13:06:13;;;;;;;;;;;;;;;36.34;15.89;97968.59;6207264;28;19936;-64
2022/08/23 13:09:20;;;;;;;;;;;;;;;36.18;16.04;97971.00;6224154;28;19925;-64
2022/08/23 13:12:25;;;;;;;;;;;;;;;35.75;16.06;97969.34;6222617;28;20027;-66
2022/08/23 13:15:59;;;;;;;;;;;;;;;35.41;16.70;97970.88;6219273;28;19968;-65
2022/08/23 13:19:15;;;;;;;;;;;;;;;34.89;17.37;97966.91;6199212;28;20425;-65
2022/08/23 13:22:24;;;;;;;;;;;;;;;34.66;17.26;97968.44;6202574;28;19952;-65
2022/08/23 13:25:33;;;;;;;;;;;;;;;34.38;17.49;97966.16;6224096;28;19925;-65
2022/08/23 13:28:34;;;;;;;;;;;;;;;34.04;17.97;97964.78;6224607;28;20098;-64
2022/08/23 13:31:52;;;;;;;;;;;;;;;33.78;18.11;97960.38;6224165;28;19925;-64
2022/08/23 13:34:55;;;;;;;;;;;;;;;33.56;18.05;97968.06;6224002;28;19925;-65
2022/08/23 13:38:16;;;;;;;;;;;;;;;33.42;18.96;97968.13;6234144;28;19999;-64
2022/08/23 13:41:38;;;;;;;;;;;;;;;33.22;18.33;97965.50;6216473;28;19937;-65
2022/08/23 13:44:41;;;;;;;;;;;;;;;32.98;18.91;97967.06;6236490;28;20027;-64
2022/08/23 13:47:47;;;;;;;;;;;;;;;32.70;18.63;97969.25;6247524;28;20075;-65
2022/08/23 13:50:51;;;;;;;;;;;;;;;32.48;18.75;97969.53;6243338;28;20310;-64
2022/08/23 13:53:53;;;;;;;;;;;;;;;32.09;19.21;97963.03;6220698;28;19925;-65
2022/08/23 13:57:06;;;;;;;;;;;;;;;31.95;19.27;97964.09;6219399;28;19926;-65
2022/08/23 14:00:09;;;;;;;;;;;;;;;31.80;19.13;97961.56;6219428;28;19964;-69
2022/08/23 14:03:10;;;;;;;;;;;;;;;31.57;19.92;97963.84;6224156;28;19936;-64
2022/08/23 14:06:11;;;;;;;;;;;;;;;31.20;19.71;97964.13;6222889;28;20450;-65
2022/08/23 14:09:15;;;;;;;;;;;;;;;30.86;20.48;97965.06;6219999;28;19925;-66
2022/08/23 14:12:20;;;;;;;;;;;;;;;30.64;20.50;97956.13;6219651;28;20015;-64
2022/08/23 14:15:21;;;;;;;;;;;;;;;30.50;20.42;97957.94;6217153;28;19926;-65
2022/08/23 14:18:24;;;;;;;;;;;;;;;30.35;20.40;97962.66;6219809;28;20052;-66
2022/08/23 14:21:25;;;;;;;;;;;;;;;30.25;20.63;97960.28;6220814;28;19925;-66
2022/08/23 14:24:27;;;;;;;;;;;;;;;30.03;20.97;97966.75;6219872;28;19991;-66
2022/08/23 14:27:28;;;;;;;;;;;;;;;29.88;21.15;97958.72;6219442;28;19925;-65
2022/08/23 14:30:30;;;;;;;;;;;;;;;29.73;21.46;97969.66;6218918;28;20064;-65
2022/08/23 14:33:36;;;;;;;;;;;;;;;29.47;21.60;97965.59;6216647;28;19925;-66
2022/08/23 14:36:41;;;;;;;;;;;;;;;29.20;21.72;97971.78;6215941;28;19930;-66
2022/08/23 14:39:45;;;;;;;;;;;;;;;28.97;22.21;97971.88;6220536;28;20008;-65
2022/08/23 14:42:46;;;;;;;;;;;;;;;28.71;22.80;97972.41;6219012;28;19953;-66
2022/08/23 14:45:50;;;;;;;;;;;;;;;28.52;22.46;97980.03;6223362;28;20421;-71
2022/08/23 14:48:52;;;;;;;;;;;;;;;28.39;23.10;97979.81;6210137;28;19926;-64
2022/08/23 14:51:59;;;;;;;;;;;;;;;28.19;23.93;97980.38;6211500;28;19926;-70
2022/08/23 14:55:00;;;;;;;;;;;;;;;28.04;24.05;97987.59;6237601;28;20016;-64
2022/08/23 14:58:06;;;;;;;;;;;;;;;27.82;24.53;97983.91;6221933;28;19926;-65
2022/08/23 15:01:07;;;;;;;;;;;;;;;27.70;24.84;97986.16;6221772;28;20027;-65
2022/08/23 15:04:17;;;;;;;;;;;;;;;27.57;25.11;97985.91;6220063;28;19925;-64
2022/08/23 15:07:20;;;;;;;;;;;;;;;27.42;25.34;97982.31;6217454;28;19925;-65
2022/08/23 15:10:22;;;;;;;;;;;;;;;27.27;25.50;97987.66;6220375;28;19925;-65
2022/08/23 15:13:24;;;;;;;;;;;;;;;27.14;25.71;97990.88;6214930;28;19925;-67
2022/08/23 15:16:28;;;;;;;;;;;;;;;27.03;26.42;97988.59;6215027;28;19926;-70
2022/08/23 15:19:29;;;;;;;;;;;;;;;26.86;26.41;97991.38;6215806;28;20020;-67
2022/08/23 15:22:35;;;;;;;;;;;;;;;26.71;26.80;97995.81;6215178;28;19926;-68
2022/08/23 15:25:38;;;;;;;;;;;;;;;26.50;27.15;97998.25;6216188;28;19996;-68
2022/08/23 15:28:45;;;;;;;;;;;;;;;26.37;27.87;97999.59;6217554;28;19932;-70
2022/08/23 15:31:49;;;;;;;;;;;;;;;26.20;28.36;98006.03;6214888;28;20306;-68
2022/08/23 15:34:55;;;;;;;;;;;;;;;25.95;28.50;98000.66;6216116;28;19974;-68
2022/08/23 15:37:59;;;;;;;;;;;;;;;25.81;28.55;98012.09;6217453;28;19945;-69
2022/08/23 15:41:02;;;;;;;;;;;;;;;25.68;29.18;98019.84;6214126;28;19932;-69
2022/08/23 15:44:04;;;;;;;;;;;;;;;25.51;29.65;98022.50;6211769;28;19925;-68
2022/08/23 15:47:37;;;;;;;;;;;;;;;25.35;29.94;98027.88;6215581;28;19926;-67
2022/08/23 15:50:43;;;;;;;;;;;;;;;25.16;30.12;98026.28;6205748;28;19926;-69
2022/08/23 15:53:47;;;;;;;;;;;;;;;24.97;30.43;98022.00;6217639;28;19926;-69
2022/08/23 15:56:52;;;;;;;;;;;;;;;24.85;31.11;98028.66;6215975;28;20314;-67
2022/08/23 15:59:57;;;;;;;;;;;;;;;24.81;31.95;98027.31;6217157;28;19926;-68
2022/08/23 16:02:59;;;;;;;;;;;;;;;24.72;32.21;98036.34;6216836;28;19925;-69
2022/08/23 16:06:04;;;;;;;;;;;;;;;24.59;32.65;98040.31;6218200;28;19984;-69
2022/08/23 16:09:11;;;;;;;;;;;;;;;24.48;33.08;98039.75;6217474;28;19925;-69
2022/08/23 16:12:15;;;;;;;;;;;;;;;24.34;33.43;98041.13;6217072;28;20005;-68
2022/08/23 16:15:18;;;;;;;;;;;;;;;24.17;33.75;98035.63;6212034;28;19926;-67
2022/08/23 16:18:22;;;;;;;;;;;;;;;24.04;34.09;98035.22;6221880;28;19925;-69